sensor_id;sensor_type;location;lat;lon;timestamp;P1;durP1;ratioP1;P2;durP2;ratioP2
3817;SDS011;1924;48.078;11.516;2023-12-20T05:05:48;27.90;;;0.80;;
3817;SDS011;1924;48.078;11.516;2023-12-20T05:08:14;27.90;;;0.80;;
3817;SDS011;1924;48.078;11.516;2023-12-20T05:10:41;28.13;;;0.80;;
3817;SDS011;1924;48.078;11.516;2023-12-20T05:23:44;27.80;;;0.80;;
3817;SDS011;1924;48.078;11.516;2023-12-20T05:34:00;28.00;;;0.80;;
3817;SDS011;1924;48.078;11.516;2023-12-20T05:36:29;27.90;;;0.80;;
3817;SDS011;1924;48.078;11.516;2023-12-20T05:38:58;28.00;;;0.80;;
3817;SDS011;1924;48.078;11.516;2023-12-20T06:13:16;28.10;;;0.80;;
3817;SDS011;1924;48.078;11.516;2023-12-20T06:15:43;28.00;;;0.80;;
3817;SDS011;1924;48.078;11.516;2023-12-20T06:18:10;28.00;;;0.80;;
3817;SDS011;1924;48.078;11.516;2023-12-20T06:20:36;28.07;;;0.80;;
3817;SDS011;1924;48.078;11.516;2023-12-20T06:28:04;28.10;;;0.80;;
3817;SDS011;1924;48.078;11.516;2023-12-20T06:30:33;27.90;;;0.80;;
3817;SDS011;1924;48.078;11.516;2023-12-20T06:32:59;28.20;;;0.80;;
3817;SDS011;1924;48.078;11.516;2023-12-20T06:35:26;28.00;;;0.80;;
3817;SDS011;1924;48.078;11.516;2023-12-20T06:37:53;28.10;;;0.80;;
3817;SDS011;1924;48.078;11.516;2023-12-20T06:40:20;28.10;;;0.80;;
3817;SDS011;1924;48.078;11.516;2023-12-20T06:42:46;28.10;;;0.80;;
3817;SDS011;1924;48.078;11.516;2023-12-20T06:45:13;28.10;;;0.80;;
3817;SDS011;1924;48.078;11.516;2023-12-20T06:47:41;28.20;;;0.80;;
3817;SDS011;1924;48.078;11.516;2023-12-20T06:50:08;28.20;;;0.80;;
3817;SDS011;1924;48.078;11.516;2023-12-20T06:55:10;28.30;;;0.80;;
3817;SDS011;1924;48.078;11.516;2023-12-20T06:57:37;28.40;;;0.80;;
3817;SDS011;1924;48.078;11.516;2023-12-20T07:00:03;28.30;;;0.80;;
3817;SDS011;1924;48.078;11.516;2023-12-20T07:02:30;28.20;;;0.80;;
3817;SDS011;1924;48.078;11.516;2023-12-20T07:05:02;28.27;;;0.80;;
3817;SDS011;1924;48.078;11.516;2023-12-20T07:07:29;28.20;;;0.80;;
3817;SDS011;1924;48.078;11.516;2023-12-20T07:09:56;28.30;;;0.80;;
3817;SDS011;1924;48.078;11.516;2023-12-20T07:12:24;28.17;;;0.80;;
3817;SDS011;1924;48.078;11.516;2023-12-20T07:19:52;28.40;;;0.80;;
3817;SDS011;1924;48.078;11.516;2023-12-20T07:22:20;28.30;;;0.80;;
3817;SDS011;1924;48.078;11.516;2023-12-20T07:24:46;28.20;;;0.80;;
3817;SDS011;1924;48.078;11.516;2023-12-20T07:27:14;28.30;;;0.80;;
3817;SDS011;1924;48.078;11.516;2023-12-20T07:29:41;28.17;;;0.80;;
3817;SDS011;1924;48.078;11.516;2023-12-20T07:32:08;28.30;;;0.80;;
3817;SDS011;1924;48.078;11.516;2023-12-20T07:34:35;28.50;;;0.80;;
3817;SDS011;1924;48.078;11.516;2023-12-20T07:37:01;28.50;;;0.80;;
3817;SDS011;1924;48.078;11.516;2023-12-20T07:39:30;28.37;;;0.80;;
3817;SDS011;1924;48.078;11.516;2023-12-20T07:41:57;28.37;;;0.80;;
3817;SDS011;1924;48.078;11.516;2023-12-20T07:44:23;28.30;;;0.80;;
3817;SDS011;1924;48.078;11.516;2023-12-20T07:46:50;28.20;;;0.80;;
3817;SDS011;1924;48.078;11.516;2023-12-20T07:49:17;28.37;;;0.80;;
3817;SDS011;1924;48.078;11.516;2023-12-20T07:51:45;28.40;;;0.80;;
3817;SDS011;1924;48.078;11.516;2023-12-20T07:54:12;28.40;;;0.80;;
3817;SDS011;1924;48.078;11.516;2023-12-20T07:56:40;28.20;;;0.80;;
3817;SDS011;1924;48.078;11.516;2023-12-20T07:59:06;28.40;;;0.80;;
3817;SDS011;1924;48.078;11.516;2023-12-20T08:01:33;28.40;;;0.80;;
3817;SDS011;1924;48.078;11.516;2023-12-20T08:04:01;28.37;;;0.80;;
3817;SDS011;1924;48.078;11.516;2023-12-20T08:06:27;28.50;;;0.80;;
3817;SDS011;1924;48.078;11.516;2023-12-20T08:08:54;28.33;;;0.80;;
3817;SDS011;1924;48.078;11.516;2023-12-20T08:11:21;28.47;;;0.80;;
3817;SDS011;1924;48.078;11.516;2023-12-20T08:13:49;28.40;;;0.80;;
3817;SDS011;1924;48.078;11.516;2023-12-20T08:16:16;28.50;;;0.80;;
3817;SDS011;1924;48.078;11.516;2023-12-20T08:18:43;28.30;;;0.80;;
3817;SDS011;1924;48.078;11.516;2023-12-20T08:21:09;28.13;;;0.80;;
3817;SDS011;1924;48.078;11.516;2023-12-20T08:23:36;28.30;;;0.80;;
3817;SDS011;1924;48.078;11.516;2023-12-20T08:26:04;28.50;;;0.80;;
3817;SDS011;1924;48.078;11.516;2023-12-20T08:28:31;28.40;;;0.80;;
3817;SDS011;1924;48.078;11.516;2023-12-20T08:30:59;28.30;;;0.80;;
3817;SDS011;1924;48.078;11.516;2023-12-20T08:33:27;28.40;;;0.80;;
3817;SDS011;1924;48.078;11.516;2023-12-20T08:35:53;28.50;;;0.80;;
3817;SDS011;1924;48.078;11.516;2023-12-20T08:38:20;28.50;;;0.80;;
3817;SDS011;1924;48.078;11.516;2023-12-20T08:40:47;28.40;;;0.80;;
3817;SDS011;1924;48.078;11.516;2023-12-20T08:43:14;28.40;;;0.80;;
3817;SDS011;1924;48.078;11.516;2023-12-20T08:45:41;28.30;;;0.80;;
3817;SDS011;1924;48.078;11.516;2023-12-20T08:57:32;28.60;;;0.80;;
3817;SDS011;1924;48.078;11.516;2023-12-20T08:59:59;28.40;;;0.80;;
3817;SDS011;1924;48.078;11.516;2023-12-20T09:02:26;28.40;;;0.80;;
3817;SDS011;1924;48.078;11.516;2023-12-20T09:04:53;28.50;;;0.80;;
3817;SDS011;1924;48.078;11.516;2023-12-20T09:07:21;28.60;;;0.80;;
3817;SDS011;1924;48.078;11.516;2023-12-20T09:17:35;28.40;;;0.80;;
3817;SDS011;1924;48.078;11.516;2023-12-20T09:25:56;28.70;;;0.80;;
3817;SDS011;1924;48.078;11.516;2023-12-20T09:31:41;28.55;;;0.80;;
3817;SDS011;1924;48.078;11.516;2023-12-20T09:34:10;28.50;;;0.80;;
3817;SDS011;1924;48.078;11.516;2023-12-20T09:42:16;28.60;;;0.80;;
3817;SDS011;1924;48.078;11.516;2023-12-20T09:47:21;28.50;;;0.80;;
3817;SDS011;1924;48.078;11.516;2023-12-20T09:49:51;28.67;;;0.80;;
3817;SDS011;1924;48.078;11.516;2023-12-20T09:52:18;28.60;;;0.80;;
3817;SDS011;1924;48.078;11.516;2023-12-20T09:54:45;28.40;;;0.80;;
3817;SDS011;1924;48.078;11.516;2023-12-20T09:57:15;28.60;;;0.80;;
3817;SDS011;1924;48.078;11.516;2023-12-20T10:07:29;28.70;;;0.80;;
3817;SDS011;1924;48.078;11.516;2023-12-20T10:12:32;28.67;;;0.80;;
3817;SDS011;1924;48.078;11.516;2023-12-20T10:14:58;28.60;;;0.80;;
3817;SDS011;1924;48.078;11.516;2023-12-20T10:20:00;28.70;;;0.80;;
3817;SDS011;1924;48.078;11.516;2023-12-20T10:22:36;28.70;;;0.80;;
3817;SDS011;1924;48.078;11.516;2023-12-20T10:48:48;28.80;;;0.80;;
3817;SDS011;1924;48.078;11.516;2023-12-20T10:51:17;28.60;;;0.80;;
3817;SDS011;1924;48.078;11.516;2023-12-20T10:53:45;28.70;;;0.80;;
3817;SDS011;1924;48.078;11.516;2023-12-20T10:56:19;28.80;;;0.80;;
3817;SDS011;1924;48.078;11.516;2023-12-20T10:59:18;28.80;;;0.80;;
3817;SDS011;1924;48.078;11.516;2023-12-20T13:21:51;28.70;;;0.80;;
3817;SDS011;1924;48.078;11.516;2023-12-20T13:27:40;28.80;;;0.80;;
3817;SDS011;1924;48.078;11.516;2023-12-20T13:33:11;28.60;;;0.80;;
3817;SDS011;1924;48.078;11.516;2023-12-20T13:51:16;28.43;;;0.80;;
3817;SDS011;1924;48.078;11.516;2023-12-20T13:53:43;28.60;;;0.80;;
3817;SDS011;1924;48.078;11.516;2023-12-20T14:11:32;28.50;;;0.80;;
3817;SDS011;1924;48.078;11.516;2023-12-20T14:13:59;28.40;;;0.80;;
3817;SDS011;1924;48.078;11.516;2023-12-20T14:16:26;28.50;;;0.80;;
3817;SDS011;1924;48.078;11.516;2023-12-20T15:00:20;28.27;;;0.80;;
3817;SDS011;1924;48.078;11.516;2023-12-20T15:02:48;28.30;;;0.80;;
3817;SDS011;1924;48.078;11.516;2023-12-20T15:05:16;28.50;;;0.80;;
3817;SDS011;1924;48.078;11.516;2023-12-20T15:17:08;28.30;;;0.80;;
3817;SDS011;1924;48.078;11.516;2023-12-20T15:24:44;28.30;;;0.80;;
3817;SDS011;1924;48.078;11.516;2023-12-20T15:27:12;28.40;;;0.80;;
3817;SDS011;1924;48.078;11.516;2023-12-20T15:29:39;28.40;;;0.80;;
3817;SDS011;1924;48.078;11.516;2023-12-20T15:32:06;28.40;;;0.80;;
3817;SDS011;1924;48.078;11.516;2023-12-20T15:34:34;28.50;;;0.80;;
3817;SDS011;1924;48.078;11.516;2023-12-20T15:37:00;28.30;;;0.80;;
3817;SDS011;1924;48.078;11.516;2023-12-20T16:32:41;28.20;;;0.80;;
3817;SDS011;1924;48.078;11.516;2023-12-20T16:35:08;28.30;;;0.80;;
3817;SDS011;1924;48.078;11.516;2023-12-20T16:49:12;28.30;;;0.80;;
3817;SDS011;1924;48.078;11.516;2023-12-20T16:51:41;28.00;;;0.80;;
3817;SDS011;1924;48.078;11.516;2023-12-20T17:04:25;28.20;;;0.80;;
3817;SDS011;1924;48.078;11.516;2023-12-20T17:15:25;28.37;;;0.80;;
3817;SDS011;1924;48.078;11.516;2023-12-20T17:17:52;28.30;;;0.80;;
3817;SDS011;1924;48.078;11.516;2023-12-20T17:44:14;28.20;;;0.80;;
3817;SDS011;1924;48.078;11.516;2023-12-20T17:51:52;28.10;;;0.80;;
3817;SDS011;1924;48.078;11.516;2023-12-20T17:54:18;28.20;;;0.80;;
3817;SDS011;1924;48.078;11.516;2023-12-20T17:56:45;28.10;;;0.80;;
3817;SDS011;1924;48.078;11.516;2023-12-20T17:59:12;28.20;;;0.80;;
3817;SDS011;1924;48.078;11.516;2023-12-20T18:01:40;28.03;;;0.80;;
3817;SDS011;1924;48.078;11.516;2023-12-20T18:04:07;28.00;;;0.80;;
3817;SDS011;1924;48.078;11.516;2023-12-20T18:06:34;28.00;;;0.80;;
3817;SDS011;1924;48.078;11.516;2023-12-20T18:09:00;28.10;;;0.80;;
3817;SDS011;1924;48.078;11.516;2023-12-20T18:11:28;28.00;;;0.80;;
3817;SDS011;1924;48.078;11.516;2023-12-20T18:13:55;27.87;;;0.80;;
3817;SDS011;1924;48.078;11.516;2023-12-20T18:18:57;27.90;;;0.80;;
3817;SDS011;1924;48.078;11.516;2023-12-20T18:26:34;28.20;;;0.80;;
3817;SDS011;1924;48.078;11.516;2023-12-20T18:29:03;28.10;;;0.80;;
3817;SDS011;1924;48.078;11.516;2023-12-20T18:31:30;28.20;;;0.80;;
3817;SDS011;1924;48.078;11.516;2023-12-20T18:33:58;28.00;;;0.80;;
3817;SDS011;1924;48.078;11.516;2023-12-20T18:36:25;28.00;;;0.80;;
3817;SDS011;1924;48.078;11.516;2023-12-20T19:03:49;27.90;;;0.80;;
3817;SDS011;1924;48.078;11.516;2023-12-20T19:09:03;27.80;;;0.80;;
3817;SDS011;1924;48.078;11.516;2023-12-20T19:11:30;27.90;;;0.80;;
3817;SDS011;1924;48.078;11.516;2023-12-20T19:13:58;27.90;;;0.80;;
3817;SDS011;1924;48.078;11.516;2023-12-20T19:16:25;28.00;;;0.80;;
3817;SDS011;1924;48.078;11.516;2023-12-20T19:18:53;27.77;;;0.80;;
3817;SDS011;1924;48.078;11.516;2023-12-20T19:21:20;27.90;;;0.80;;
3817;SDS011;1924;48.078;11.516;2023-12-20T19:28:48;27.90;;;0.80;;
3817;SDS011;1924;48.078;11.516;2023-12-20T19:31:14;27.70;;;0.80;;
3817;SDS011;1924;48.078;11.516;2023-12-20T19:33:41;27.80;;;0.80;;
3817;SDS011;1924;48.078;11.516;2023-12-20T19:58:06;27.70;;;0.80;;
3817;SDS011;1924;48.078;11.516;2023-12-20T20:00:32;27.70;;;0.80;;
3817;SDS011;1924;48.078;11.516;2023-12-20T20:02:59;27.80;;;0.80;;
3817;SDS011;1924;48.078;11.516;2023-12-20T20:05:27;27.70;;;0.80;;
3817;SDS011;1924;48.078;11.516;2023-12-20T20:13:06;27.70;;;0.80;;
3817;SDS011;1924;48.078;11.516;2023-12-20T20:15:32;27.60;;;0.80;;
3817;SDS011;1924;48.078;11.516;2023-12-20T20:26:11;27.80;;;0.80;;
3817;SDS011;1924;48.078;11.516;2023-12-20T20:28:39;27.70;;;0.80;;
3817;SDS011;1924;48.078;11.516;2023-12-20T20:31:06;27.60;;;0.80;;
3817;SDS011;1924;48.078;11.516;2023-12-20T20:36:08;27.90;;;0.80;;
3817;SDS011;1924;48.078;11.516;2023-12-20T20:43:48;27.70;;;0.80;;
3817;SDS011;1924;48.078;11.516;2023-12-20T20:46:15;27.80;;;0.80;;
3817;SDS011;1924;48.078;11.516;2023-12-20T20:48:44;27.70;;;0.80;;
3817;SDS011;1924;48.078;11.516;2023-12-20T20:51:11;27.60;;;0.80;;
3817;SDS011;1924;48.078;11.516;2023-12-20T20:53:37;27.60;;;0.80;;
3817;SDS011;1924;48.078;11.516;2023-12-20T20:58:42;27.77;;;0.80;;
3817;SDS011;1924;48.078;11.516;2023-12-20T21:01:10;27.70;;;0.80;;
3817;SDS011;1924;48.078;11.516;2023-12-20T21:03:37;27.60;;;0.80;;
3817;SDS011;1924;48.078;11.516;2023-12-20T21:06:08;27.67;;;0.80;;
3817;SDS011;1924;48.078;11.516;2023-12-20T21:08:37;27.50;;;0.80;;
3817;SDS011;1924;48.078;11.516;2023-12-20T21:11:05;27.70;;;0.80;;
3817;SDS011;1924;48.078;11.516;2023-12-20T21:13:32;27.80;;;0.80;;
3817;SDS011;1924;48.078;11.516;2023-12-20T21:16:03;27.50;;;0.80;;
3817;SDS011;1924;48.078;11.516;2023-12-20T21:18:33;27.60;;;0.80;;
3817;SDS011;1924;48.078;11.516;2023-12-20T21:21:00;27.70;;;0.80;;
3817;SDS011;1924;48.078;11.516;2023-12-20T21:23:36;27.67;;;0.80;;
3817;SDS011;1924;48.078;11.516;2023-12-20T21:26:12;27.50;;;0.80;;
3817;SDS011;1924;48.078;11.516;2023-12-20T21:28:39;27.70;;;0.80;;
3817;SDS011;1924;48.078;11.516;2023-12-20T21:31:06;27.60;;;0.80;;
3817;SDS011;1924;48.078;11.516;2023-12-20T21:52:55;27.70;;;0.80;;
3817;SDS011;1924;48.078;11.516;2023-12-20T22:03:21;27.57;;;0.80;;
3817;SDS011;1924;48.078;11.516;2023-12-20T22:08:15;27.60;;;0.80;;
3817;SDS011;1924;48.078;11.516;2023-12-20T22:10:41;27.90;;;0.80;;
3817;SDS011;1924;48.078;11.516;2023-12-20T22:39:29;27.60;;;0.80;;
3817;SDS011;1924;48.078;11.516;2023-12-20T23:35:43;27.30;;;0.80;;
3817;SDS011;1924;48.078;11.516;2023-12-20T23:40:45;27.40;;;0.80;;
3817;SDS011;1924;48.078;11.516;2023-12-20T23:43:11;27.60;;;0.80;;
3817;SDS011;1924;48.078;11.516;2023-12-20T23:45:38;27.40;;;0.80;;
3817;SDS011;1924;48.078;11.516;2023-12-20T23:48:05;27.60;;;0.80;;
3817;SDS011;1924;48.078;11.516;2023-12-20T23:50:31;27.40;;;0.80;;
3817;SDS011;1924;48.078;11.516;2023-12-20T23:52:59;27.40;;;0.80;;
3817;SDS011;1924;48.078;11.516;2023-12-20T23:58:02;27.50;;;0.80;;
